Time;durP1;ratioP1;P1;durP2;ratioP2;P2;SDS_P1;SDS_P2;PMS_P1;PMS_P2;Temp;Humidity;BMP_temperature;BMP_pressure;BME280_temperature;BME280_humidity;BME280_pressure;Samples;Min_cycle;Max_cycle;Signal;HPM_P1;HPM_P2
2021/03/03 00:01:05;;;;;;;22.65;12.20;;;;;;;;;;5036300;28;20472;-46
2021/03/03 00:03:31;;;;;;;17.75;10.48;;;;;;;;;;5047190;28;20092;-46
2021/03/03 00:05:57;;;;;;;22.77;12.45;;;;;;;;;;5042172;28;20124;-46
2021/03/03 00:08:23;;;;;;;22.92;12.50;;;;;;;;;;5053837;28;20198;-47
2021/03/03 00:10:49;;;;;;;22.52;12.48;;;;;;;;;;5037418;28;20025;-46
2021/03/03 00:13:15;;;;;;;23.42;11.98;;;;;;;;;;5034399;28;20036;-46
2021/03/03 00:15:41;;;;;;;29.35;12.07;;;;;;;;;;5050567;28;20103;-47
2021/03/03 00:18:07;;;;;;;27.10;12.60;;;;;;;;;;5052050;28;20041;-47
2021/03/03 00:20:33;;;;;;;22.88;12.07;;;;;;;;;;5050595;28;20112;-48
2021/03/03 00:22:59;;;;;;;27.33;13.85;;;;;;;;;;5037391;28;20078;-48
2021/03/03 00:25:25;;;;;;;24.90;12.65;;;;;;;;;;5037169;28;20117;-47
2021/03/03 00:27:51;;;;;;;26.40;13.35;;;;;;;;;;5036009;28;20056;-47
2021/03/03 00:30:18;;;;;;;23.60;12.68;;;;;;;;;;5037024;28;20024;-46
2021/03/03 00:32:44;;;;;;;26.83;14.35;;;;;;;;;;5043449;28;20049;-46
2021/03/03 00:35:11;;;;;;;37.72;17.50;;;;;;;;;;5036411;28;20055;-46
2021/03/03 00:37:37;;;;;;;34.08;16.27;;;;;;;;;;5051484;28;20020;-46
2021/03/03 00:40:06;;;;;;;30.83;15.23;;;;;;;;;;5037609;28;20108;-46
2021/03/03 00:42:32;;;;;;;30.10;13.57;;;;;;;;;;5033275;28;20029;-47
2021/03/03 00:44:58;;;;;;;25.10;13.93;;;;;;;;;;5034942;28;20123;-46
2021/03/03 00:47:24;;;;;;;26.02;13.27;;;;;;;;;;5038997;28;20025;-46
2021/03/03 00:49:50;;;;;;;27.65;14.90;;;;;;;;;;5034513;28;20026;-47
2021/03/03 00:52:16;;;;;;;28.80;15.13;;;;;;;;;;5042310;28;20032;-46
2021/03/03 00:54:43;;;;;;;27.90;14.23;;;;;;;;;;5045244;28;20025;-49
2021/03/03 00:57:09;;;;;;;24.63;14.20;;;;;;;;;;5034993;28;20029;-46
2021/03/03 00:59:35;;;;;;;26.80;13.55;;;;;;;;;;5034091;28;20040;-46
2021/03/03 01:02:01;;;;;;;26.52;14.32;;;;;;;;;;5037373;28;20476;-46
2021/03/03 01:04:27;;;;;;;25.17;13.73;;;;;;;;;;5036258;28;20052;-46
2021/03/03 01:06:53;;;;;;;29.02;15.55;;;;;;;;;;5041960;28;20079;-47
2021/03/03 01:09:19;;;;;;;26.95;13.88;;;;;;;;;;5046879;28;20029;-46
2021/03/03 01:11:45;;;;;;;27.83;16.17;;;;;;;;;;5044073;28;20017;-46
2021/03/03 01:14:11;;;;;;;23.90;13.75;;;;;;;;;;5036451;28;20377;-46
2021/03/03 01:16:37;;;;;;;25.63;13.88;;;;;;;;;;5045428;28;20025;-46
2021/03/03 01:19:04;;;;;;;22.55;12.38;;;;;;;;;;5039955;28;20035;-47
2021/03/03 01:21:30;;;;;;;23.75;13.10;;;;;;;;;;5046157;28;20075;-46
2021/03/03 01:23:55;;;;;;;25.67;13.18;;;;;;;;;;5038487;28;20433;-46
2021/03/03 01:26:22;;;;;;;23.98;13.07;;;;;;;;;;5051074;28;20353;-46
2021/03/03 01:28:48;;;;;;;23.10;12.82;;;;;;;;;;5033043;28;20160;-46
2021/03/03 01:31:14;;;;;;;25.25;13.20;;;;;;;;;;5044785;28;20017;-47
2021/03/03 01:33:39;;;;;;;28.63;13.20;;;;;;;;;;5036102;28;20024;-46
2021/03/03 01:36:06;;;;;;;23.17;12.75;;;;;;;;;;5032824;28;20025;-46
2021/03/03 01:38:32;;;;;;;24.92;13.00;;;;;;;;;;5050875;28;20108;-47
2021/03/03 01:40:58;;;;;;;22.50;12.70;;;;;;;;;;5052778;28;20536;-48
2021/03/03 01:43:24;;;;;;;27.63;13.63;;;;;;;;;;5035523;28;20022;-46
2021/03/03 01:45:51;;;;;;;25.60;12.75;;;;;;;;;;5034331;28;20029;-46
2021/03/03 01:48:17;;;;;;;27.67;13.15;;;;;;;;;;5037278;28;20116;-47
2021/03/03 01:50:43;;;;;;;23.52;12.35;;;;;;;;;;5050000;28;20511;-46
2021/03/03 01:53:09;;;;;;;23.55;12.45;;;;;;;;;;5041896;28;20022;-47
2021/03/03 01:55:35;;;;;;;22.48;12.70;;;;;;;;;;5043084;28;20120;-49
2021/03/03 01:58:02;;;;;;;25.17;13.75;;;;;;;;;;5033553;28;20117;-46
2021/03/03 02:00:28;;;;;;;27.67;13.75;;;;;;;;;;5046252;28;20108;-45
2021/03/03 02:02:54;;;;;;;25.77;14.00;;;;;;;;;;5038799;28;20468;-45
2021/03/03 02:05:20;;;;;;;25.60;13.02;;;;;;;;;;5046290;28;20033;-45
2021/03/03 02:07:46;;;;;;;25.75;13.32;;;;;;;;;;5044220;28;20407;-45
2021/03/03 02:10:19;;;;;;;28.88;13.35;;;;;;;;;;5051898;28;20021;-44
2021/03/03 02:13:06;;;;;;;20.40;11.40;;;;;;;;;;5052421;28;20068;-45
2021/03/03 02:15:33;;;;;;;24.40;12.65;;;;;;;;;;5046338;28;20346;-44
2021/03/03 02:18:00;;;;;;;21.33;12.02;;;;;;;;;;5043640;28;20121;-44
2021/03/03 02:20:28;;;;;;;22.30;11.90;;;;;;;;;;5048843;28;20429;-44
2021/03/03 02:23:07;;;;;;;20.98;10.85;;;;;;;;;;5050116;28;20090;-44
2021/03/03 02:25:36;;;;;;;25.17;12.00;;;;;;;;;;5043989;28;20482;-45
2021/03/03 02:28:03;;;;;;;20.55;11.40;;;;;;;;;;5040423;28;20057;-45
2021/03/03 02:30:30;;;;;;;23.02;11.20;;;;;;;;;;5055568;28;20520;-45
2021/03/03 02:32:57;;;;;;;20.50;10.70;;;;;;;;;;5050526;28;20033;-45
2021/03/03 02:35:23;;;;;;;20.38;11.88;;;;;;;;;;5055243;28;20090;-45
2021/03/03 02:37:49;;;;;;;20.48;11.60;;;;;;;;;;5042322;28;20108;-45
2021/03/03 02:40:16;;;;;;;23.08;12.57;;;;;;;;;;5047953;28;20029;-45
2021/03/03 02:42:43;;;;;;;24.70;12.68;;;;;;;;;;5035877;28;20021;-47
2021/03/03 02:45:14;;;;;;;25.92;12.70;;;;;;;;;;5035889;28;20029;-44
2021/03/03 02:47:40;;;;;;;23.95;13.07;;;;;;;;;;5046202;28;20029;-46
2021/03/03 02:50:07;;;;;;;24.88;13.45;;;;;;;;;;5040619;28;20477;-45
2021/03/03 02:52:52;;;;;;;25.15;11.52;;;;;;;;;;5044540;28;20267;-45
2021/03/03 02:55:18;;;;;;;22.05;12.85;;;;;;;;;;5046527;28;20029;-46
2021/03/03 02:57:44;;;;;;;28.92;12.95;;;;;;;;;;5043616;28;20034;-45
2021/03/03 03:00:15;;;;;;;24.08;12.70;;;;;;;;;;5045437;28;20029;-45
2021/03/03 03:02:42;;;;;;;26.58;13.32;;;;;;;;;;5053065;28;20093;-44
2021/03/03 03:05:08;;;;;;;26.60;12.98;;;;;;;;;;5055352;28;20029;-45
2021/03/03 03:07:37;;;;;;;20.98;12.40;;;;;;;;;;5053127;28;20044;-45
2021/03/03 03:10:04;;;;;;;24.35;12.77;;;;;;;;;;5055529;28;20032;-45
2021/03/03 03:12:31;;;;;;;26.85;13.02;;;;;;;;;;5048343;28;20558;-44
2021/03/03 03:14:59;;;;;;;25.77;13.55;;;;;;;;;;5035657;28;20104;-45
2021/03/03 03:17:26;;;;;;;25.23;13.15;;;;;;;;;;5050507;28;20028;-45
2021/03/03 03:19:53;;;;;;;28.77;13.57;;;;;;;;;;5036813;28;20026;-45
2021/03/03 03:22:21;;;;;;;23.80;12.32;;;;;;;;;;5040095;28;20029;-45
2021/03/03 03:24:47;;;;;;;25.25;13.02;;;;;;;;;;5040492;28;20500;-45
2021/03/03 03:27:14;;;;;;;23.05;13.30;;;;;;;;;;5054007;28;20132;-46
2021/03/03 03:29:41;;;;;;;27.00;12.98;;;;;;;;;;5052869;28;20584;-45
2021/03/03 03:32:07;;;;;;;23.27;12.80;;;;;;;;;;5042890;28;20524;-45
2021/03/03 03:34:34;;;;;;;24.70;13.07;;;;;;;;;;5053000;28;20537;-45
2021/03/03 03:37:01;;;;;;;27.85;13.50;;;;;;;;;;5039759;28;20365;-45
2021/03/03 03:39:27;;;;;;;27.83;13.55;;;;;;;;;;5044204;28;20028;-45
2021/03/03 03:41:53;;;;;;;31.98;13.90;;;;;;;;;;5048156;28;20021;-45
2021/03/03 03:44:20;;;;;;;27.52;14.48;;;;;;;;;;5035046;28;20111;-45
2021/03/03 03:46:46;;;;;;;24.00;13.05;;;;;;;;;;5036387;28;20053;-45
2021/03/03 03:49:12;;;;;;;23.48;13.18;;;;;;;;;;5038165;28;20414;-45
2021/03/03 03:51:41;;;;;;;30.58;14.18;;;;;;;;;;5040195;28;20021;-45
2021/03/03 03:54:08;;;;;;;30.92;14.15;;;;;;;;;;5048887;28;20037;-45
2021/03/03 03:56:34;;;;;;;24.48;13.65;;;;;;;;;;5042193;28;20384;-47
2021/03/03 03:59:00;;;;;;;26.95;13.98;;;;;;;;;;5039699;28;20105;-44
2021/03/03 04:01:26;;;;;;;27.55;13.52;;;;;;;;;;5038063;28;20163;-45
2021/03/03 04:03:52;;;;;;;24.60;13.75;;;;;;;;;;5046334;28;20033;-47
2021/03/03 04:06:18;;;;;;;24.60;13.05;;;;;;;;;;5034334;28;20057;-45
2021/03/03 04:08:44;;;;;;;24.88;12.25;;;;;;;;;;5042151;28;20536;-45
2021/03/03 04:11:10;;;;;;;21.70;11.75;;;;;;;;;;5040732;28;20378;-44
2021/03/03 04:13:36;;;;;;;25.15;12.55;;;;;;;;;;5040647;28;20044;-45
2021/03/03 04:16:02;;;;;;;23.52;12.60;;;;;;;;;;5034258;28;20025;-46
2021/03/03 04:18:28;;;;;;;23.02;12.27;;;;;;;;;;5048374;28;20021;-44
2021/03/03 04:20:54;;;;;;;25.48;12.55;;;;;;;;;;5047620;28;20079;-45
2021/03/03 04:23:20;;;;;;;21.65;12.55;;;;;;;;;;5039827;28;20026;-45
2021/03/03 04:25:46;;;;;;;27.05;13.30;;;;;;;;;;5046097;28;20033;-44
2021/03/03 04:28:12;;;;;;;21.73;12.23;;;;;;;;;;5050563;28;20088;-45
2021/03/03 04:30:38;;;;;;;27.83;13.45;;;;;;;;;;5040736;28;20028;-45
2021/03/03 04:33:04;;;;;;;24.73;12.63;;;;;;;;;;5053790;28;20021;-45
2021/03/03 04:35:30;;;;;;;25.20;12.15;;;;;;;;;;5046576;28;20037;-44
2021/03/03 04:37:56;;;;;;;24.95;12.63;;;;;;;;;;5033592;28;20067;-45
2021/03/03 04:40:22;;;;;;;25.60;12.65;;;;;;;;;;5042343;28;20060;-45
2021/03/03 04:42:48;;;;;;;28.88;13.57;;;;;;;;;;5039965;28;20057;-45
2021/03/03 04:45:14;;;;;;;28.83;13.73;;;;;;;;;;5053539;28;20049;-45
2021/03/03 04:47:41;;;;;;;22.75;12.60;;;;;;;;;;5038944;28;20112;-45
2021/03/03 04:50:08;;;;;;;25.15;12.38;;;;;;;;;;5037362;28;20691;-45
2021/03/03 04:52:34;;;;;;;26.75;13.48;;;;;;;;;;5038918;28;20033;-45
2021/03/03 04:55:00;;;;;;;26.13;13.13;;;;;;;;;;5053568;28;20424;-45
2021/03/03 04:57:26;;;;;;;26.10;13.38;;;;;;;;;;5035919;28;20029;-44
2021/03/03 04:59:52;;;;;;;24.42;13.43;;;;;;;;;;5039264;28;20363;-47
2021/03/03 05:02:18;;;;;;;24.52;13.43;;;;;;;;;;5036535;28;20020;-45
2021/03/03 05:04:45;;;;;;;26.63;13.73;;;;;;;;;;5050787;28;20464;-44
2021/03/03 05:07:11;;;;;;;45.95;17.33;;;;;;;;;;5039597;28;20080;-44
2021/03/03 05:09:37;;;;;;;30.90;15.57;;;;;;;;;;5036255;28;20132;-45
2021/03/03 05:12:04;;;;;;;37.55;16.15;;;;;;;;;;5052404;28;20056;-45
2021/03/03 05:14:30;;;;;;;34.85;16.05;;;;;;;;;;5048919;28;20029;-45
2021/03/03 05:16:55;;;;;;;28.42;14.43;;;;;;;;;;5045271;28;20034;-44
2021/03/03 05:19:21;;;;;;;23.42;13.48;;;;;;;;;;5040608;28;20021;-45
2021/03/03 05:21:48;;;;;;;26.83;13.90;;;;;;;;;;5039303;28;20469;-45
2021/03/03 05:24:13;;;;;;;31.98;15.95;;;;;;;;;;5045693;28;20111;-45
2021/03/03 05:26:39;;;;;;;45.35;18.40;;;;;;;;;;5032916;28;20365;-45
2021/03/03 05:29:05;;;;;;;38.28;18.25;;;;;;;;;;5049854;28;20071;-45
2021/03/03 05:31:31;;;;;;;36.63;17.20;;;;;;;;;;5037971;28;20033;-45
2021/03/03 05:33:57;;;;;;;40.05;18.95;;;;;;;;;;5033461;28;20032;-45
2021/03/03 05:36:24;;;;;;;43.58;19.67;;;;;;;;;;5052770;28;20021;-45
2021/03/03 05:38:50;;;;;;;37.20;18.15;;;;;;;;;;5041694;28;20075;-45
2021/03/03 05:41:16;;;;;;;42.63;20.48;;;;;;;;;;5032529;28;20045;-44
2021/03/03 05:43:42;;;;;;;27.00;14.25;;;;;;;;;;5046685;28;20104;-45
2021/03/03 05:46:08;;;;;;;33.20;15.27;;;;;;;;;;5044187;28;20025;-45
2021/03/03 05:48:41;;;;;;;29.67;14.55;;;;;;;;;;5032880;28;20048;-45
2021/03/03 05:51:08;;;;;;;29.80;14.93;;;;;;;;;;5039565;28;20034;-45
2021/03/03 05:53:34;;;;;;;42.20;20.02;;;;;;;;;;5042040;28;20709;-46
2021/03/03 05:56:01;;;;;;;32.17;16.35;;;;;;;;;;5045569;28;20489;-45
2021/03/03 05:58:28;;;;;;;38.97;18.70;;;;;;;;;;5046710;28;20043;-45
2021/03/03 06:00:58;;;;;;;43.00;19.33;;;;;;;;;;5042520;28;20021;-45
2021/03/03 06:03:25;;;;;;;41.03;20.08;;;;;;;;;;5056084;28;20119;-46
2021/03/03 06:05:51;;;;;;;29.60;15.32;;;;;;;;;;5045288;28;20656;-45
2021/03/03 06:08:25;;;;;;;30.50;16.25;;;;;;;;;;5045546;28;20040;-46
2021/03/03 06:10:51;;;;;;;37.22;17.42;;;;;;;;;;5037812;28;20365;-45
2021/03/03 06:13:17;;;;;;;36.45;17.08;;;;;;;;;;5038991;28;20029;-45
2021/03/03 06:15:43;;;;;;;38.10;19.23;;;;;;;;;;5049354;28;20036;-45
2021/03/03 06:18:14;;;;;;;44.90;20.13;;;;;;;;;;5039259;28;20121;-45
2021/03/03 06:20:41;;;;;;;44.03;19.70;;;;;;;;;;5047538;28;20067;-45
2021/03/03 06:23:14;;;;;;;47.08;22.65;;;;;;;;;;5038172;28;20025;-44
2021/03/03 06:25:41;;;;;;;48.30;22.30;;;;;;;;;;5049546;28;20032;-45
2021/03/03 06:28:07;;;;;;;45.10;20.75;;;;;;;;;;5042915;28;20098;-45
2021/03/03 06:30:33;;;;;;;51.75;23.45;;;;;;;;;;5037315;28;20044;-45
2021/03/03 06:33:03;;;;;;;56.60;24.88;;;;;;;;;;5047720;28;20357;-45
2021/03/03 06:35:36;;;;;;;50.28;24.13;;;;;;;;;;5055604;28;20036;-51
2021/03/03 06:38:04;;;;;;;55.90;24.27;;;;;;;;;;5042470;28;20484;-45
2021/03/03 06:40:30;;;;;;;59.92;25.52;;;;;;;;;;5039931;28;20446;-44
2021/03/03 06:42:56;;;;;;;58.05;23.40;;;;;;;;;;5044343;28;20376;-45
2021/03/03 06:45:29;;;;;;;59.30;24.40;;;;;;;;;;5036432;28;20025;-46
2021/03/03 06:47:55;;;;;;;;;;;;;;;;;;5049294;28;20029;-46
2021/03/03 06:50:22;;;;;;;55.85;24.35;;;;;;;;;;5049781;28;20294;-45
2021/03/03 06:52:52;;;;;;;60.75;25.30;;;;;;;;;;5049708;28;20112;-47
2021/03/03 06:55:18;;;;;;;74.10;28.83;;;;;;;;;;5045781;28;20029;-46
2021/03/03 06:57:44;;;;;;;64.47;28.48;;;;;;;;;;5052036;28;20515;-47
2021/03/03 07:00:10;;;;;;;65.53;26.92;;;;;;;;;;5037138;28;20072;-45
2021/03/03 07:02:38;;;;;;;56.95;24.17;;;;;;;;;;5037604;28;20116;-47
2021/03/03 07:05:04;;;;;;;57.88;23.63;;;;;;;;;;5043041;28;20025;-45
2021/03/03 07:07:30;;;;;;;45.95;21.52;;;;;;;;;;5046102;28;20051;-46
2021/03/03 07:10:00;;;;;;;52.58;22.58;;;;;;;;;;5035356;28;20147;-44
2021/03/03 07:12:28;;;;;;;52.28;21.23;;;;;;;;;;5048819;28;20029;-45
2021/03/03 07:14:55;;;;;;;50.65;21.67;;;;;;;;;;5035500;28;20033;-45
2021/03/03 07:17:22;;;;;;;55.28;23.90;;;;;;;;;;5048236;28;20032;-45
2021/03/03 07:19:48;;;;;;;50.13;23.80;;;;;;;;;;5043422;28;20075;-46
2021/03/03 07:22:24;;;;;;;54.70;24.77;;;;;;;;;;5046510;28;20305;-44
2021/03/03 07:24:54;;;;;;;52.90;23.98;;;;;;;;;;5040402;28;20025;-45
2021/03/03 07:27:21;;;;;;;32.90;18.45;;;;;;;;;;5049965;28;20046;-46
2021/03/03 07:29:51;;;;;;;35.25;18.58;;;;;;;;;;5049337;28;20039;-45
2021/03/03 07:32:18;;;;;;;38.53;20.75;;;;;;;;;;5049124;28;20033;-48
2021/03/03 07:34:48;;;;;;;29.88;17.30;;;;;;;;;;5053792;28;20072;-45
2021/03/03 07:37:15;;;;;;;30.48;17.40;;;;;;;;;;5048650;28;20358;-48
2021/03/03 07:39:43;;;;;;;28.80;18.08;;;;;;;;;;5043696;28;20074;-45
2021/03/03 07:42:10;;;;;;;33.05;17.55;;;;;;;;;;5039072;28;20036;-45
2021/03/03 07:44:40;;;;;;;33.88;18.55;;;;;;;;;;5044143;28;20029;-45
2021/03/03 07:47:06;;;;;;;41.03;19.25;;;;;;;;;;5047972;28;20026;-45
2021/03/03 07:49:35;;;;;;;36.65;19.10;;;;;;;;;;5034558;28;20029;-44
2021/03/03 07:52:01;;;;;;;36.25;19.80;;;;;;;;;;5037163;28;20029;-46
2021/03/03 07:54:28;;;;;;;41.53;18.98;;;;;;;;;;5036135;28;20036;-45
2021/03/03 07:56:54;;;;;;;34.90;18.75;;;;;;;;;;5042710;28;20024;-46
2021/03/03 07:59:20;;;;;;;34.60;18.95;;;;;;;;;;5047739;28;20039;-46
2021/03/03 08:01:49;;;;;;;37.53;20.23;;;;;;;;;;5043804;28;20025;-46
2021/03/03 08:04:35;;;;;;;31.70;17.58;;;;;;;;;;5045167;28;20032;-46
2021/03/03 08:07:19;;;;;;;39.17;20.40;;;;;;;;;;5044221;28;20029;-46
2021/03/03 08:10:21;;;;;;;37.60;20.08;;;;;;;;;;5036052;28;20037;-45
2021/03/03 08:12:57;;;;;;;37.75;19.73;;;;;;;;;;5036608;28;20041;-45
2021/03/03 08:15:39;;;;;;;35.67;19.77;;;;;;;;;;5046088;28;20045;-45
2021/03/03 08:18:14;;;;;;;34.45;19.00;;;;;;;;;;5049760;28;20036;-44
2021/03/03 08:20:44;;;;;;;34.78;19.42;;;;;;;;;;5035091;28;20091;-49
2021/03/03 08:23:10;;;;;;;32.28;18.13;;;;;;;;;;5036388;28;20033;-45
2021/03/03 08:25:46;;;;;;;35.78;19.40;;;;;;;;;;5048708;28;20039;-45
2021/03/03 08:28:25;;;;;;;39.45;18.73;;;;;;;;;;5039913;28;20047;-47
2021/03/03 08:31:10;;;;;;;36.30;19.50;;;;;;;;;;5050290;28;20036;-45
2021/03/03 08:33:39;;;;;;;32.78;18.05;;;;;;;;;;5045626;28;20068;-48
2021/03/03 08:36:06;;;;;;;32.92;18.55;;;;;;;;;;5040214;28;20410;-45
2021/03/03 08:38:32;;;;;;;44.53;22.13;;;;;;;;;;5049260;28;20446;-45
2021/03/03 08:41:16;;;;;;;41.13;20.83;;;;;;;;;;5051036;28;20115;-45
2021/03/03 08:43:43;;;;;;;52.85;26.85;;;;;;;;;;5047992;28;20033;-46
2021/03/03 08:46:34;;;;;;;49.85;25.23;;;;;;;;;;5041166;28;20035;-45
2021/03/03 08:49:00;;;;;;;48.65;25.20;;;;;;;;;;5037456;28;20091;-45
2021/03/03 08:51:28;;;;;;;47.92;24.55;;;;;;;;;;5042949;28;20029;-46
2021/03/03 08:53:54;;;;;;;47.33;23.23;;;;;;;;;;5040738;28;20112;-46
2021/03/03 08:56:39;;;;;;;47.22;24.05;;;;;;;;;;5036237;28;20449;-47
2021/03/03 08:59:12;;;;;;;48.97;23.80;;;;;;;;;;5045166;28;20056;-45
2021/03/03 09:01:54;;;;;;;50.05;24.55;;;;;;;;;;5046838;28;20020;-47
2021/03/03 09:04:21;;;;;;;47.67;25.10;;;;;;;;;;5047575;28;20087;-47
2021/03/03 09:06:49;;;;;;;47.55;24.48;;;;;;;;;;5039832;28;20447;-45
2021/03/03 09:09:15;;;;;;;44.10;22.85;;;;;;;;;;5040189;28;20376;-45
2021/03/03 09:11:41;;;;;;;45.25;22.63;;;;;;;;;;5036912;28;20037;-45
2021/03/03 09:14:07;;;;;;;51.65;23.95;;;;;;;;;;5048558;28;20572;-45
2021/03/03 09:16:34;;;;;;;49.63;23.33;;;;;;;;;;5047103;28;20026;-45
2021/03/03 09:19:03;;;;;;;45.60;23.27;;;;;;;;;;5044581;28;20068;-46
2021/03/03 09:21:30;;;;;;;46.53;23.45;;;;;;;;;;5038968;28;20049;-45
2021/03/03 09:24:07;;;;;;;42.33;21.75;;;;;;;;;;5041940;28;20123;-48
2021/03/03 09:26:33;;;;;;;45.65;22.65;;;;;;;;;;5047394;28;20029;-46
2021/03/03 09:28:59;;;;;;;43.00;22.67;;;;;;;;;;5043246;28;20040;-46
2021/03/03 09:31:38;;;;;;;48.45;23.55;;;;;;;;;;5054853;28;20037;-47
2021/03/03 09:34:05;;;;;;;43.80;21.92;;;;;;;;;;5043939;28;20045;-45
2021/03/03 09:36:31;;;;;;;55.00;25.75;;;;;;;;;;5041408;28;20120;-46
2021/03/03 09:38:58;;;;;;;49.78;24.13;;;;;;;;;;5052151;28;20023;-45
2021/03/03 09:41:24;;;;;;;50.35;24.05;;;;;;;;;;5042226;28;20041;-45
2021/03/03 09:44:00;;;;;;;45.67;23.45;;;;;;;;;;5033877;28;20108;-46
2021/03/03 09:46:26;;;;;;;49.97;24.10;;;;;;;;;;5043892;28;20350;-49
2021/03/03 09:48:52;;;;;;;40.45;22.38;;;;;;;;;;5044711;28;20072;-46
2021/03/03 09:51:19;;;;;;;45.53;21.60;;;;;;;;;;5060476;28;20481;-47
2021/03/03 09:53:57;;;;;;;44.90;23.58;;;;;;;;;;5054420;28;20663;-46
2021/03/03 09:56:30;;;;;;;43.08;22.23;;;;;;;;;;5040021;28;20384;-46
2021/03/03 09:58:56;;;;;;;41.47;22.55;;;;;;;;;;5046136;28;20060;-48
2021/03/03 10:01:23;;;;;;;39.63;22.60;;;;;;;;;;5048099;28;20096;-45
2021/03/03 10:03:50;;;;;;;40.40;22.13;;;;;;;;;;5042877;28;20100;-45
2021/03/03 10:06:16;;;;;;;40.67;22.80;;;;;;;;;;5041162;28;20111;-45
2021/03/03 10:08:42;;;;;;;38.60;20.52;;;;;;;;;;5042739;28;20076;-47
2021/03/03 10:11:08;;;;;;;42.90;22.75;;;;;;;;;;5048309;28;20033;-46
2021/03/03 10:13:40;;;;;;;45.55;23.15;;;;;;;;;;5038804;28;20033;-46
2021/03/03 10:16:16;;;;;;;42.17;21.63;;;;;;;;;;5039031;28;20060;-47
2021/03/03 10:19:02;;;;;;;43.17;23.40;;;;;;;;;;5050711;28;20417;-46
2021/03/03 10:21:28;;;;;;;43.92;23.50;;;;;;;;;;5044229;28;20350;-46
2021/03/03 10:23:54;;;;;;;40.70;22.58;;;;;;;;;;5046145;28;20029;-46
2021/03/03 10:26:23;;;;;;;41.30;21.98;;;;;;;;;;5043138;28;20028;-47
2021/03/03 10:28:52;;;;;;;45.67;21.98;;;;;;;;;;5043864;28;20060;-50
2021/03/03 10:31:23;;;;;;;42.63;21.60;;;;;;;;;;5045265;28;20024;-46
2021/03/03 10:33:49;;;;;;;38.35;20.75;;;;;;;;;;5045782;28;20033;-46
2021/03/03 10:36:15;;;;;;;38.55;20.70;;;;;;;;;;5044867;28;20042;-46
2021/03/03 10:38:45;;;;;;;38.13;20.65;;;;;;;;;;5036630;28;20378;-47
2021/03/03 10:41:20;;;;;;;30.23;18.17;;;;;;;;;;5044827;28;20021;-46
2021/03/03 10:43:50;;;;;;;32.83;18.58;;;;;;;;;;5055380;28;20037;-46
2021/03/03 10:46:17;;;;;;;31.50;18.00;;;;;;;;;;5056517;28;20115;-46
2021/03/03 10:48:43;;;;;;;33.63;18.98;;;;;;;;;;5051191;28;20025;-47
2021/03/03 10:51:10;;;;;;;30.15;18.63;;;;;;;;;;5056154;28;20068;-46
2021/03/03 10:53:49;;;;;;;33.58;18.98;;;;;;;;;;5055396;28;20036;-47
2021/03/03 10:56:23;;;;;;;30.17;18.42;;;;;;;;;;5048418;28;20025;-43
2021/03/03 10:58:49;;;;;;;33.40;18.80;;;;;;;;;;5056901;28;20017;-43
2021/03/03 11:01:15;;;;;;;34.33;19.70;;;;;;;;;;5054651;28;20025;-45
2021/03/03 11:03:59;;;;;;;34.25;17.83;;;;;;;;;;5056759;28;20098;-43
2021/03/03 11:06:29;;;;;;;33.30;18.42;;;;;;;;;;5057620;28;20047;-43
2021/03/03 11:08:56;;;;;;;31.77;18.42;;;;;;;;;;5053884;28;20025;-43
2021/03/03 11:11:22;;;;;;;34.75;19.35;;;;;;;;;;5057196;28;20462;-45
2021/03/03 11:13:48;;;;;;;31.92;18.75;;;;;;;;;;5056837;28;20037;-44
2021/03/03 11:16:14;;;;;;;33.95;18.88;;;;;;;;;;5046761;28;20381;-43
2021/03/03 11:18:40;;;;;;;35.15;18.42;;;;;;;;;;5045824;28;20028;-43
2021/03/03 11:21:06;;;;;;;32.13;17.48;;;;;;;;;;5051969;28;20094;-43
2021/03/03 11:23:32;;;;;;;32.67;17.73;;;;;;;;;;5045182;28;20056;-44
2021/03/03 11:26:00;;;;;;;28.38;17.25;;;;;;;;;;5045508;28;20349;-43
2021/03/03 11:28:26;;;;;;;28.33;15.73;;;;;;;;;;5049135;28;20432;-44
2021/03/03 11:30:52;;;;;;;33.70;18.45;;;;;;;;;;5038599;28;20044;-44
2021/03/03 11:33:18;;;;;;;28.92;16.67;;;;;;;;;;5049804;28;20029;-44
2021/03/03 11:35:45;;;;;;;30.85;17.95;;;;;;;;;;5045493;28;20428;-46
2021/03/03 11:38:11;;;;;;;27.23;15.80;;;;;;;;;;5045467;28;20469;-45
2021/03/03 11:40:37;;;;;;;34.05;16.50;;;;;;;;;;5042224;28;20458;-44
2021/03/03 11:43:04;;;;;;;27.13;15.75;;;;;;;;;;5045765;28;20021;-47
2021/03/03 11:45:30;;;;;;;31.08;15.25;;;;;;;;;;5044929;28;20388;-44
2021/03/03 11:47:56;;;;;;;26.52;15.25;;;;;;;;;;5053478;28;20052;-44
2021/03/03 11:50:22;;;;;;;26.08;14.38;;;;;;;;;;5049494;28;20075;-44
2021/03/03 11:52:48;;;;;;;25.13;14.75;;;;;;;;;;5041024;28;20045;-47
2021/03/03 11:55:14;;;;;;;27.95;15.20;;;;;;;;;;5039882;28;20242;-44
2021/03/03 11:57:40;;;;;;;25.75;14.25;;;;;;;;;;5045818;28;20029;-44
2021/03/03 12:00:11;;;;;;;22.92;14.13;;;;;;;;;;5058247;28;20036;-49
2021/03/03 12:02:37;;;;;;;20.00;12.15;;;;;;;;;;5052655;28;20056;-44
2021/03/03 12:05:03;;;;;;;25.33;14.45;;;;;;;;;;5050309;28;20028;-44
2021/03/03 12:07:29;;;;;;;22.20;12.73;;;;;;;;;;5054168;28;20035;-45
2021/03/03 12:09:55;;;;;;;19.98;12.55;;;;;;;;;;5051646;28;20136;-46
2021/03/03 12:12:21;;;;;;;23.02;13.27;;;;;;;;;;5042880;28;20080;-44
2021/03/03 12:14:48;;;;;;;19.75;12.23;;;;;;;;;;5044959;28;20032;-45
2021/03/03 12:17:14;;;;;;;27.05;13.48;;;;;;;;;;5050065;28;20521;-44
2021/03/03 12:19:40;;;;;;;19.40;12.27;;;;;;;;;;5056337;28;20052;-44
2021/03/03 12:22:06;;;;;;;17.73;11.77;;;;;;;;;;5053239;28;20049;-44
2021/03/03 12:24:32;;;;;;;19.10;10.52;;;;;;;;;;5048749;28;20474;-44
2021/03/03 12:26:58;;;;;;;16.55;10.27;;;;;;;;;;5036331;28;20103;-44
2021/03/03 12:29:24;;;;;;;17.67;10.63;;;;;;;;;;5046492;28;20024;-44
2021/03/03 12:31:50;;;;;;;17.90;11.10;;;;;;;;;;5046254;28;20053;-44
2021/03/03 12:34:16;;;;;;;20.33;11.57;;;;;;;;;;5050085;28;20020;-44
2021/03/03 12:36:42;;;;;;;21.52;11.75;;;;;;;;;;5055326;28;20457;-44
2021/03/03 12:39:08;;;;;;;21.77;12.35;;;;;;;;;;5047734;28;20503;-44
2021/03/03 12:41:34;;;;;;;21.98;11.70;;;;;;;;;;5047249;28;20024;-44
2021/03/03 12:44:01;;;;;;;21.88;10.88;;;;;;;;;;5054194;28;20044;-44
2021/03/03 12:46:27;;;;;;;20.05;11.57;;;;;;;;;;5052675;28;20048;-47
2021/03/03 12:48:53;;;;;;;23.70;11.38;;;;;;;;;;5049518;28;20033;-45
2021/03/03 12:51:19;;;;;;;21.45;12.00;;;;;;;;;;5047883;28;20033;-47
2021/03/03 12:53:46;;;;;;;23.75;12.75;;;;;;;;;;5052763;28;20397;-45
2021/03/03 12:56:12;;;;;;;19.77;12.15;;;;;;;;;;5048685;28;20032;-47
2021/03/03 12:58:39;;;;;;;22.45;13.07;;;;;;;;;;5054320;28;20029;-45
2021/03/03 13:01:05;;;;;;;22.85;13.38;;;;;;;;;;5055094;28;20173;-44
2021/03/03 13:03:31;;;;;;;21.90;11.43;;;;;;;;;;5049569;28;20028;-46
2021/03/03 13:05:57;;;;;;;23.35;12.13;;;;;;;;;;5052563;28;20452;-44
2021/03/03 13:08:23;;;;;;;19.27;11.02;;;;;;;;;;5043957;28;20023;-45
2021/03/03 13:10:50;;;;;;;19.30;10.65;;;;;;;;;;5043118;28;20457;-44
2021/03/03 13:13:16;;;;;;;17.80;10.68;;;;;;;;;;5042467;28;20099;-44
2021/03/03 13:15:42;;;;;;;19.83;10.98;;;;;;;;;;5041911;28;20124;-45
2021/03/03 13:18:08;;;;;;;19.10;11.13;;;;;;;;;;5045608;28;20404;-44
2021/03/03 13:20:34;;;;;;;19.42;10.13;;;;;;;;;;5046631;28;20033;-44
2021/03/03 13:23:00;;;;;;;19.80;9.95;;;;;;;;;;5038282;28;20063;-45
2021/03/03 13:25:26;;;;;;;17.10;8.60;;;;;;;;;;5043648;28;20509;-45
2021/03/03 13:27:52;;;;;;;18.77;9.40;;;;;;;;;;5047430;28;20132;-44
2021/03/03 13:30:19;;;;;;;14.68;9.40;;;;;;;;;;5039291;28;20116;-43
2021/03/03 13:32:45;;;;;;;14.45;8.88;;;;;;;;;;5052445;28;20410;-43
2021/03/03 13:35:11;;;;;;;14.77;8.50;;;;;;;;;;5050769;28;20040;-44
2021/03/03 13:37:38;;;;;;;17.98;8.65;;;;;;;;;;5056437;28;20039;-43
2021/03/03 13:40:05;;;;;;;18.38;8.82;;;;;;;;;;5048876;28;20400;-45
2021/03/03 13:42:31;;;;;;;18.67;9.05;;;;;;;;;;5048134;28;20111;-43
2021/03/03 13:44:57;;;;;;;17.48;8.68;;;;;;;;;;5046290;28;20632;-44
2021/03/03 13:47:23;;;;;;;15.73;8.65;;;;;;;;;;5042850;28;20029;-47
2021/03/03 13:49:49;;;;;;;15.93;8.45;;;;;;;;;;5041762;28;20024;-43
2021/03/03 13:52:15;;;;;;;15.15;7.88;;;;;;;;;;5040470;28;20057;-44
2021/03/03 13:54:40;;;;;;;17.27;9.65;;;;;;;;;;5032909;28;20450;-43
2021/03/03 13:57:08;;;;;;;14.07;7.95;;;;;;;;;;5046494;28;20112;-43
2021/03/03 13:59:34;;;;;;;16.17;8.68;;;;;;;;;;5046873;28;20022;-44
2021/03/03 14:02:00;;;;;;;13.80;7.78;;;;;;;;;;5049610;28;20025;-44
2021/03/03 14:04:26;;;;;;;14.60;7.70;;;;;;;;;;5044254;28;20375;-43
2021/03/03 14:06:52;;;;;;;14.02;8.13;;;;;;;;;;5048694;28;20029;-43
2021/03/03 14:09:18;;;;;;;13.85;7.35;;;;;;;;;;5034845;28;20045;-43
2021/03/03 14:11:44;;;;;;;16.67;8.07;;;;;;;;;;5049195;28;20424;-43
2021/03/03 14:14:10;;;;;;;16.20;6.65;;;;;;;;;;5037696;28;20033;-44
2021/03/03 14:16:36;;;;;;;14.50;7.22;;;;;;;;;;5038121;28;20501;-43
2021/03/03 14:19:03;;;;;;;16.52;7.00;;;;;;;;;;5041657;28;20124;-43
2021/03/03 14:21:29;;;;;;;16.70;7.50;;;;;;;;;;5044676;28;20457;-43